Paragould, AR (72450)

5:30 PM CST on February 01, 2015 (GMT -0600)
Carriage Hill | Change Station
CLOSE
Current Station
Personal Weather Station
Location: Paragould, AR
Elevation: 300 ft
Nearby Weather Stations

Elev 300 ft 36.00 °N, 90.53 °W | Updated 1 hour ago

Overcast
Overcast
51.6 °F
Feels Like 51.6 °F
N
5.8
Wind Variable Wind from West

Today
High -- | Low -- °F
--% Chance of Precip.
Yesterday
High -- | Low -- °F
Precip. -- in
7:02 AM 5:28 PM
Waxing Gibbous, 96% visible
Pressure 29.75 in
Visibility 10.0 miles
Clouds Scattered Clouds 2300 ft
Scattered Clouds 3000 ft
Overcast 4700 ft
Dew Point 48 °F
Humidity 89%
Rainfall 0.48 in
Snow Depth Not available.
UV 0 out of 12
Pollen 2.40 out of 12
Air Quality Not available.
Flu Activity Not available.
METAR KJBR 012253Z AUTO 30015G22KT 10SM SCT023 SCT030 OVC047 09/06 A2975 RMK AO2 PK WND 29026/2239 SLP074 T00940061

More Conditions Fewer Conditions

Pressure 29.75 in
Visibility 10.0 miles
Clouds Scattered Clouds 2300 ft
Scattered Clouds 3000 ft
Overcast 4700 ft
Dew Point 48 °F
Humidity 89%
Rainfall 0.48 in
Snow Depth Not available.
UV 0 out of 12
Pollen 2.40 out of 12
Air Quality Not available.
Flu Activity Not available.
METAR KJBR 012253Z AUTO 30015G22KT 10SM SCT023 SCT030 OVC047 09/06 A2975 RMK AO2 PK WND 29026/2239 SLP074 T00940061

More Conditions Fewer Conditions

10-Day Weather Forecast

Almanac

Astronomy

Feb. 01, 2015 Rise Set
Actual Time
Civil Twilight
Nautical Twilight
Astronomical Twilight
Moon
Length of Visible Light
Length of Day
Tomorrow will be .
, % of the Moon is Illuminated

Today's Extremes

State Highs State Lows

Community

WunderPhotos

Upload Photos

1,792,609 photos uploaded!

WunderBlogs® & News

Nearby

Air Quality

  Air Quality AQ Index Pollutant
Not available.

Snow Depth

Station Depth Elevation

Earthquake Activity

City Distance Mag. Time & Date
Minimum magnitude displayed is 2.5.

Coastal Water Temperatures

Place Temperature

Nearby Weather Stations